Ardmore Seamaster — V7UU8 — position and weather

sailwx.info

Track history (hours):
 
Tides and Currents Weather Stations Pressure Air Temp Water Temp Dewpoint Dewpoint Depression Visibility Wind Speed Wind Dir Waves Ship Positions

Ardmore Seamaster

Last reported at 2016-Jul-05 04:25 UTC. Time now 2016-Jul-31 05:29 UTC.
Position N 08°26' W 079°27'.
Warning: this ship's position is 26 days out of date.

; draft 12 m.

Type: Tanker. MMSI: 538004102.

Date/timePositionNaut miles runAvg speedWind from/ knotsBaromVisibWave heightAir tempDewpointWater temp
2016-Jul-05 04:25N 08°26' W 079°27'36 6.0
2016-Jul-04 22:29N 09°01' W 079°37'2 1.1
2016-Jul-04 20:31N 09°02' W 079°38'9 4.2
2016-Jul-04 18:30N 09°07' W 079°45'5 5.3
2016-Jul-04 17:33N 09°10' W 079°50'8 7.8
2016-Jul-04 16:33N 09°15' W 079°55'1 1.2
2016-Jul-04 15:33N 09°16' W 079°55'0 0.4
2016-Jul-04 14:33N 09°17' W 079°55'3 3.0
2016-Jul-04 13:34N 09°20' W 079°55'4 3.6
2016-Jul-04 12:21N 09°24' W 079°55'0 0.0
2016-Jul-04 11:30N 09°24' W 079°55'0 0.0
2016-Jul-04 10:31N 09°24' W 079°55'0 0.0
2016-Jul-04 09:33N 09°24' W 079°55'0 0.0
2016-Jul-04 08:33N 09°24' W 079°55'0 0.0
2016-Jul-04 07:31N 09°24' W 079°55'0 0.0
2016-Jul-04 06:33N 09°24' W 079°55'0 0.0
2016-Jul-04 05:33N 09°24' W 079°55'0 0.0
2016-Jul-04 04:31N 09°24' W 079°55'0 0.0
2016-Jul-04 03:33N 09°24' W 079°55'0 0.0
2016-Jul-04 02:28N 09°24' W 079°55'0 0.0
2016-Jul-04 01:32N 09°24' W 079°55'0 0.0
2016-Jul-04 00:33N 09°24' W 079°55'0 0.0
2016-Jul-03 23:33N 09°24' W 079°55'0 0.0
2016-Jul-03 22:30N 09°24' W 079°55'0 0.0
2016-Jul-03 21:24N 09°24' W 079°55'0 0.0
2016-Jul-03 20:33N 09°24' W 079°55'0 0.0
2016-Jul-03 19:32N 09°24' W 079°55'0 0.0
2016-Jul-03 18:27N 09°24' W 079°55'0 0.1
2016-Jul-03 17:31N 09°24' W 079°55'7 7.5
2016-Jul-03 16:33N 09°31' W 079°53'1212.3
2016-Jul-03 15:33N 09°43' W 079°52'  
Track history (hours):
 
Tides and Currents Weather Stations Pressure Air Temp Water Temp Dewpoint Dewpoint Depression Visibility Wind Speed Wind Dir Waves Ship Positions

Ardmore Seamaster

Last reported at 2016-Jul-05 04:25 UTC. Time now 2016-Jul-31 05:29 UTC.
Position N 08°26' W 079°27'.
Warning: this ship's position is 26 days out of date.

; draft 12 m.

Type: Tanker. MMSI: 538004102.

Date/timePositionNaut miles runAvg speedWind from/ knotsBaromVisibWave heightAir tempDewpointWater temp
2016-Jul-05 04:25N 08°26' W 079°27'36 6.0
2016-Jul-04 22:29N 09°01' W 079°37'2 1.1
2016-Jul-04 20:31N 09°02' W 079°38'9 4.2
2016-Jul-04 18:30N 09°07' W 079°45'5 5.3
2016-Jul-04 17:33N 09°10' W 079°50'8 7.8
2016-Jul-04 16:33N 09°15' W 079°55'1 1.2
2016-Jul-04 15:33N 09°16' W 079°55'0 0.4
2016-Jul-04 14:33N 09°17' W 079°55'3 3.0
2016-Jul-04 13:34N 09°20' W 079°55'4 3.6
2016-Jul-04 12:21N 09°24' W 079°55'0 0.0
2016-Jul-04 11:30N 09°24' W 079°55'0 0.0
2016-Jul-04 10:31N 09°24' W 079°55'0 0.0
2016-Jul-04 09:33N 09°24' W 079°55'0 0.0
2016-Jul-04 08:33N 09°24' W 079°55'0 0.0
2016-Jul-04 07:31N 09°24' W 079°55'0 0.0
2016-Jul-04 06:33N 09°24' W 079°55'0 0.0
2016-Jul-04 05:33N 09°24' W 079°55'0 0.0
2016-Jul-04 04:31N 09°24' W 079°55'0 0.0
2016-Jul-04 03:33N 09°24' W 079°55'0 0.0
2016-Jul-04 02:28N 09°24' W 079°55'0 0.0
2016-Jul-04 01:32N 09°24' W 079°55'0 0.0
2016-Jul-04 00:33N 09°24' W 079°55'0 0.0
2016-Jul-03 23:33N 09°24' W 079°55'0 0.0
2016-Jul-03 22:30N 09°24' W 079°55'0 0.0
2016-Jul-03 21:24N 09°24' W 079°55'0 0.0
2016-Jul-03 20:33N 09°24' W 079°55'0 0.0
2016-Jul-03 19:32N 09°24' W 079°55'0 0.0
2016-Jul-03 18:27N 09°24' W 079°55'0 0.1
2016-Jul-03 17:31N 09°24' W 079°55'7 7.5
2016-Jul-03 16:33N 09°31' W 079°53'1212.3
2016-Jul-03 15:33N 09°43' W 079°52'  

Dump ship's entire track history